< < Back
Terminal Aerodrome Forecast


Current Version              Previous Versions:   1  2  3  4  5  6  7  8  9  

Terminal Aerodrome Forecast

952
FTUS42 KCHS 040113 AAA
TAFSAV
TAF AMD
KSAV 040113Z 0401/0424 24008KT P6SM VCTS SCT035CB BKN060
     FM040400 23006KT P6SM VCSH FEW015 SCT035 BKN080
     FM041200 28010KT P6SM SCT015 BKN050=

Latest METAR

272
SAUS80 KWBC 041200 RRA
MTRSAV
METAR KSAV 041153Z 28006KT 10SM FEW041 BKN060 BKN075 21/18 A2977 RMK AO2
SLP079 60000 70007 T02060183 10206 20200 50006


USA.gov is the U.S. government's official web portal to all federal, state and local government web resources and services.